sensor_id;sensor_type;location;lat;lon;timestamp;P1;durP1;ratioP1;P2;durP2;ratioP2
35917;SDS011;22011;59.912;30.300;2023-04-28T00:00:23;0.85;;;0.40;;
35917;SDS011;22011;59.912;30.300;2023-04-28T00:02:51;0.85;;;0.50;;
35917;SDS011;22011;59.912;30.300;2023-04-28T00:05:19;0.65;;;0.60;;
35917;SDS011;22011;59.912;30.300;2023-04-28T00:07:47;1.65;;;0.75;;
35917;SDS011;22011;59.912;30.300;2023-04-28T00:10:15;1.35;;;0.75;;
35917;SDS011;22011;59.912;30.300;2023-04-28T00:12:43;1.73;;;0.88;;
35917;SDS011;22011;59.912;30.300;2023-04-28T00:15:10;1.48;;;0.90;;
35917;SDS011;22011;59.912;30.300;2023-04-28T00:17:38;1.35;;;0.90;;
35917;SDS011;22011;59.912;30.300;2023-04-28T00:20:07;2.63;;;0.93;;
35917;SDS011;22011;59.912;30.300;2023-04-28T00:25:03;0.80;;;0.70;;
35917;SDS011;22011;59.912;30.300;2023-04-28T00:27:31;1.42;;;0.60;;
35917;SDS011;22011;59.912;30.300;2023-04-28T00:29:59;1.67;;;0.75;;
35917;SDS011;22011;59.912;30.300;2023-04-28T00:32:26;1.67;;;0.82;;
35917;SDS011;22011;59.912;30.300;2023-04-28T00:34:55;0.90;;;0.70;;
35917;SDS011;22011;59.912;30.300;2023-04-28T00:37:24;0.52;;;0.52;;
35917;SDS011;22011;59.912;30.300;2023-04-28T00:39:55;1.33;;;0.55;;
35917;SDS011;22011;59.912;30.300;2023-04-28T00:42:22;1.85;;;1.13;;
35917;SDS011;22011;59.912;30.300;2023-04-28T00:44:50;1.17;;;0.75;;
35917;SDS011;22011;59.912;30.300;2023-04-28T00:47:17;1.00;;;0.70;;
35917;SDS011;22011;59.912;30.300;2023-04-28T00:49:45;1.48;;;0.65;;
35917;SDS011;22011;59.912;30.300;2023-04-28T00:52:14;0.85;;;0.80;;
35917;SDS011;22011;59.912;30.300;2023-04-28T00:54:43;0.82;;;0.60;;
35917;SDS011;22011;59.912;30.300;2023-04-28T00:57:12;1.63;;;0.80;;
35917;SDS011;22011;59.912;30.300;2023-04-28T00:59:40;0.57;;;0.50;;
35917;SDS011;22011;59.912;30.300;2023-04-28T01:02:07;0.50;;;0.50;;
35917;SDS011;22011;59.912;30.300;2023-04-28T01:04:42;0.93;;;0.80;;
35917;SDS011;22011;59.912;30.300;2023-04-28T01:07:11;1.10;;;0.83;;
35917;SDS011;22011;59.912;30.300;2023-04-28T01:09:39;1.27;;;1.13;;
35917;SDS011;22011;59.912;30.300;2023-04-28T01:12:09;1.52;;;1.02;;
35917;SDS011;22011;59.912;30.300;2023-04-28T01:14:49;2.08;;;0.90;;
35917;SDS011;22011;59.912;30.300;2023-04-28T01:17:17;1.52;;;1.20;;
35917;SDS011;22011;59.912;30.300;2023-04-28T01:19:45;2.63;;;0.90;;
35917;SDS011;22011;59.912;30.300;2023-04-28T01:22:12;2.90;;;0.70;;
35917;SDS011;22011;59.912;30.300;2023-04-28T01:24:43;1.75;;;1.00;;
35917;SDS011;22011;59.912;30.300;2023-04-28T01:27:13;1.13;;;0.88;;
35917;SDS011;22011;59.912;30.300;2023-04-28T01:29:41;1.05;;;0.85;;
35917;SDS011;22011;59.912;30.300;2023-04-28T01:32:08;2.50;;;1.13;;
35917;SDS011;22011;59.912;30.300;2023-04-28T01:34:36;2.08;;;1.27;;
35917;SDS011;22011;59.912;30.300;2023-04-28T01:37:05;2.28;;;1.70;;
35917;SDS011;22011;59.912;30.300;2023-04-28T01:39:33;2.13;;;1.63;;
35917;SDS011;22011;59.912;30.300;2023-04-28T01:42:03;5.67;;;2.37;;
35917;SDS011;22011;59.912;30.300;2023-04-28T01:44:32;2.47;;;1.58;;
35917;SDS011;22011;59.912;30.300;2023-04-28T01:46:59;2.63;;;1.52;;
35917;SDS011;22011;59.912;30.300;2023-04-28T01:49:27;1.80;;;1.42;;
35917;SDS011;22011;59.912;30.300;2023-04-28T01:51:54;1.67;;;1.50;;
35917;SDS011;22011;59.912;30.300;2023-04-28T01:54:22;2.88;;;1.52;;
35917;SDS011;22011;59.912;30.300;2023-04-28T01:56:50;2.50;;;1.50;;
35917;SDS011;22011;59.912;30.300;2023-04-28T01:59:20;2.90;;;1.30;;
35917;SDS011;22011;59.912;30.300;2023-04-28T02:01:48;2.20;;;1.40;;
35917;SDS011;22011;59.912;30.300;2023-04-28T02:04:16;2.55;;;1.73;;
35917;SDS011;22011;59.912;30.300;2023-04-28T02:06:43;2.35;;;1.50;;
35917;SDS011;22011;59.912;30.300;2023-04-28T02:09:12;2.97;;;1.50;;
35917;SDS011;22011;59.912;30.300;2023-04-28T02:11:39;2.13;;;1.42;;
35917;SDS011;22011;59.912;30.300;2023-04-28T02:14:07;2.35;;;1.40;;
35917;SDS011;22011;59.912;30.300;2023-04-28T02:16:36;2.40;;;1.48;;
35917;SDS011;22011;59.912;30.300;2023-04-28T02:19:03;5.70;;;1.33;;
35917;SDS011;22011;59.912;30.300;2023-04-28T02:21:31;1.40;;;1.30;;
35917;SDS011;22011;59.912;30.300;2023-04-28T02:23:58;1.77;;;1.38;;
35917;SDS011;22011;59.912;30.300;2023-04-28T02:26:26;2.15;;;1.23;;
35917;SDS011;22011;59.912;30.300;2023-04-28T02:28:53;2.30;;;1.48;;
35917;SDS011;22011;59.912;30.300;2023-04-28T02:31:21;1.65;;;1.40;;
35917;SDS011;22011;59.912;30.300;2023-04-28T02:33:50;1.73;;;1.30;;
35917;SDS011;22011;59.912;30.300;2023-04-28T02:36:17;4.57;;;1.90;;
35917;SDS011;22011;59.912;30.300;2023-04-28T02:38:45;2.05;;;1.45;;
35917;SDS011;22011;59.912;30.300;2023-04-28T02:41:12;1.45;;;1.27;;
35917;SDS011;22011;59.912;30.300;2023-04-28T02:43:40;3.25;;;1.70;;
35917;SDS011;22011;59.912;30.300;2023-04-28T02:46:08;2.28;;;1.60;;
35917;SDS011;22011;59.912;30.300;2023-04-28T02:48:36;2.95;;;1.70;;
35917;SDS011;22011;59.912;30.300;2023-04-28T02:51:04;2.22;;;1.55;;
35917;SDS011;22011;59.912;30.300;2023-04-28T02:53:33;3.05;;;2.00;;
35917;SDS011;22011;59.912;30.300;2023-04-28T02:56:01;2.88;;;1.48;;
35917;SDS011;22011;59.912;30.300;2023-04-28T02:58:30;1.63;;;1.52;;
35917;SDS011;22011;59.912;30.300;2023-04-28T03:00:57;4.70;;;1.38;;
35917;SDS011;22011;59.912;30.300;2023-04-28T03:03:25;2.13;;;1.30;;
35917;SDS011;22011;59.912;30.300;2023-04-28T03:05:53;3.05;;;1.85;;
35917;SDS011;22011;59.912;30.300;2023-04-28T03:08:23;2.92;;;2.17;;
35917;SDS011;22011;59.912;30.300;2023-04-28T03:10:52;1.35;;;1.25;;
35917;SDS011;22011;59.912;30.300;2023-04-28T03:13:20;2.58;;;1.40;;
35917;SDS011;22011;59.912;30.300;2023-04-28T03:15:48;2.35;;;1.27;;
35917;SDS011;22011;59.912;30.300;2023-04-28T03:18:17;3.45;;;1.45;;
35917;SDS011;22011;59.912;30.300;2023-04-28T03:20:44;1.60;;;1.27;;
35917;SDS011;22011;59.912;30.300;2023-04-28T03:23:12;3.63;;;1.45;;
35917;SDS011;22011;59.912;30.300;2023-04-28T03:25:41;2.20;;;1.70;;
35917;SDS011;22011;59.912;30.300;2023-04-28T03:28:08;1.98;;;1.35;;
35917;SDS011;22011;59.912;30.300;2023-04-28T03:30:36;1.65;;;1.30;;
35917;SDS011;22011;59.912;30.300;2023-04-28T03:33:04;1.80;;;1.30;;
35917;SDS011;22011;59.912;30.300;2023-04-28T03:35:32;1.63;;;1.35;;
35917;SDS011;22011;59.912;30.300;2023-04-28T03:38:00;3.22;;;1.52;;
35917;SDS011;22011;59.912;30.300;2023-04-28T03:40:27;2.53;;;1.30;;
35917;SDS011;22011;59.912;30.300;2023-04-28T03:43:25;6.43;;;1.80;;
35917;SDS011;22011;59.912;30.300;2023-04-28T03:46:07;1.60;;;1.50;;
35917;SDS011;22011;59.912;30.300;2023-04-28T03:48:35;2.75;;;1.70;;
35917;SDS011;22011;59.912;30.300;2023-04-28T03:51:02;3.00;;;1.17;;
35917;SDS011;22011;59.912;30.300;2023-04-28T03:53:30;3.47;;;1.10;;
35917;SDS011;22011;59.912;30.300;2023-04-28T03:55:58;4.15;;;1.75;;
35917;SDS011;22011;59.912;30.300;2023-04-28T03:58:27;2.13;;;1.35;;
35917;SDS011;22011;59.912;30.300;2023-04-28T04:00:54;1.73;;;1.45;;
35917;SDS011;22011;59.912;30.300;2023-04-28T04:03:22;1.98;;;1.42;;
35917;SDS011;22011;59.912;30.300;2023-04-28T04:05:51;2.25;;;1.58;;
35917;SDS011;22011;59.912;30.300;2023-04-28T04:08:21;2.35;;;1.60;;
35917;SDS011;22011;59.912;30.300;2023-04-28T04:10:48;3.75;;;1.40;;
35917;SDS011;22011;59.912;30.300;2023-04-28T04:13:17;2.58;;;1.40;;
35917;SDS011;22011;59.912;30.300;2023-04-28T04:15:46;2.25;;;1.33;;
35917;SDS011;22011;59.912;30.300;2023-04-28T04:18:15;4.05;;;1.58;;
35917;SDS011;22011;59.912;30.300;2023-04-28T04:21:15;2.97;;;1.40;;
35917;SDS011;22011;59.912;30.300;2023-04-28T04:23:44;3.70;;;1.42;;
35917;SDS011;22011;59.912;30.300;2023-04-28T04:26:12;2.38;;;1.52;;
35917;SDS011;22011;59.912;30.300;2023-04-28T04:28:39;2.55;;;1.70;;
35917;SDS011;22011;59.912;30.300;2023-04-28T04:31:09;2.15;;;1.48;;
35917;SDS011;22011;59.912;30.300;2023-04-28T04:33:37;3.28;;;1.75;;
35917;SDS011;22011;59.912;30.300;2023-04-28T04:36:06;3.75;;;2.25;;
35917;SDS011;22011;59.912;30.300;2023-04-28T04:38:34;3.53;;;2.08;;
35917;SDS011;22011;59.912;30.300;2023-04-28T04:41:11;6.82;;;2.17;;
35917;SDS011;22011;59.912;30.300;2023-04-28T04:43:39;4.10;;;2.28;;
35917;SDS011;22011;59.912;30.300;2023-04-28T04:46:07;2.55;;;1.70;;
35917;SDS011;22011;59.912;30.300;2023-04-28T04:48:36;2.78;;;2.00;;
35917;SDS011;22011;59.912;30.300;2023-04-28T04:51:03;6.15;;;2.35;;
35917;SDS011;22011;59.912;30.300;2023-04-28T04:53:32;3.80;;;1.92;;
35917;SDS011;22011;59.912;30.300;2023-04-28T04:56:00;8.05;;;2.08;;
35917;SDS011;22011;59.912;30.300;2023-04-28T04:58:28;4.57;;;2.22;;
35917;SDS011;22011;59.912;30.300;2023-04-28T05:00:56;3.20;;;2.00;;
35917;SDS011;22011;59.912;30.300;2023-04-28T05:03:23;4.68;;;2.60;;
35917;SDS011;22011;59.912;30.300;2023-04-28T05:05:53;2.63;;;1.92;;
35917;SDS011;22011;59.912;30.300;2023-04-28T05:08:31;4.15;;;2.67;;
35917;SDS011;22011;59.912;30.300;2023-04-28T05:10:58;4.85;;;2.30;;
35917;SDS011;22011;59.912;30.300;2023-04-28T05:13:26;3.15;;;1.90;;
35917;SDS011;22011;59.912;30.300;2023-04-28T05:15:59;6.47;;;2.50;;
35917;SDS011;22011;59.912;30.300;2023-04-28T05:18:41;24.58;;;3.15;;
35917;SDS011;22011;59.912;30.300;2023-04-28T05:21:10;4.90;;;2.10;;
35917;SDS011;22011;59.912;30.300;2023-04-28T05:23:38;5.60;;;2.20;;
35917;SDS011;22011;59.912;30.300;2023-04-28T05:26:06;8.32;;;2.05;;
35917;SDS011;22011;59.912;30.300;2023-04-28T05:28:34;5.03;;;1.92;;
35917;SDS011;22011;59.912;30.300;2023-04-28T05:31:01;3.30;;;2.28;;
35917;SDS011;22011;59.912;30.300;2023-04-28T05:33:30;4.32;;;2.08;;
35917;SDS011;22011;59.912;30.300;2023-04-28T05:35:58;4.70;;;2.30;;
35917;SDS011;22011;59.912;30.300;2023-04-28T05:38:27;3.83;;;1.98;;
35917;SDS011;22011;59.912;30.300;2023-04-28T05:40:57;5.47;;;2.35;;
35917;SDS011;22011;59.912;30.300;2023-04-28T05:43:25;13.20;;;2.15;;
35917;SDS011;22011;59.912;30.300;2023-04-28T05:45:53;6.57;;;1.95;;
35917;SDS011;22011;59.912;30.300;2023-04-28T05:48:20;4.63;;;2.22;;
35917;SDS011;22011;59.912;30.300;2023-04-28T05:50:48;8.40;;;2.22;;
35917;SDS011;22011;59.912;30.300;2023-04-28T05:53:15;5.65;;;2.10;;
35917;SDS011;22011;59.912;30.300;2023-04-28T05:55:44;3.90;;;1.77;;
35917;SDS011;22011;59.912;30.300;2023-04-28T05:58:13;3.05;;;1.75;;
35917;SDS011;22011;59.912;30.300;2023-04-28T06:00:40;5.35;;;2.17;;
35917;SDS011;22011;59.912;30.300;2023-04-28T06:03:08;5.78;;;2.03;;
35917;SDS011;22011;59.912;30.300;2023-04-28T06:05:36;4.03;;;2.03;;
35917;SDS011;22011;59.912;30.300;2023-04-28T06:08:04;2.53;;;2.05;;
35917;SDS011;22011;59.912;30.300;2023-04-28T06:10:32;7.00;;;2.35;;
35917;SDS011;22011;59.912;30.300;2023-04-28T06:13:01;4.85;;;2.05;;
35917;SDS011;22011;59.912;30.300;2023-04-28T06:15:31;8.82;;;2.25;;
35917;SDS011;22011;59.912;30.300;2023-04-28T06:17:59;7.90;;;2.65;;
35917;SDS011;22011;59.912;30.300;2023-04-28T06:20:26;3.47;;;2.10;;
35917;SDS011;22011;59.912;30.300;2023-04-28T06:22:54;2.55;;;1.90;;
35917;SDS011;22011;59.912;30.300;2023-04-28T06:25:21;4.53;;;2.50;;
35917;SDS011;22011;59.912;30.300;2023-04-28T06:27:49;6.15;;;2.40;;
35917;SDS011;22011;59.912;30.300;2023-04-28T06:30:19;3.85;;;2.28;;
35917;SDS011;22011;59.912;30.300;2023-04-28T06:32:48;5.63;;;2.60;;
35917;SDS011;22011;59.912;30.300;2023-04-28T06:35:17;4.43;;;1.83;;
35917;SDS011;22011;59.912;30.300;2023-04-28T06:37:44;7.25;;;2.20;;
35917;SDS011;22011;59.912;30.300;2023-04-28T06:40:12;3.17;;;2.17;;
35917;SDS011;22011;59.912;30.300;2023-04-28T06:42:45;5.10;;;2.03;;
35917;SDS011;22011;59.912;30.300;2023-04-28T06:45:20;6.25;;;2.13;;
35917;SDS011;22011;59.912;30.300;2023-04-28T06:47:48;5.50;;;2.00;;
35917;SDS011;22011;59.912;30.300;2023-04-28T06:50:15;5.80;;;2.38;;
35917;SDS011;22011;59.912;30.300;2023-04-28T06:52:43;4.35;;;1.80;;
35917;SDS011;22011;59.912;30.300;2023-04-28T06:55:15;4.78;;;2.15;;
35917;SDS011;22011;59.912;30.300;2023-04-28T06:57:43;4.75;;;1.88;;
35917;SDS011;22011;59.912;30.300;2023-04-28T07:00:11;2.35;;;1.85;;
35917;SDS011;22011;59.912;30.300;2023-04-28T07:02:40;3.67;;;2.03;;
35917;SDS011;22011;59.912;30.300;2023-04-28T07:05:08;9.68;;;2.42;;
35917;SDS011;22011;59.912;30.300;2023-04-28T07:07:36;10.43;;;2.15;;
35917;SDS011;22011;59.912;30.300;2023-04-28T07:10:04;9.30;;;2.20;;
35917;SDS011;22011;59.912;30.300;2023-04-28T07:12:32;4.35;;;2.08;;
35917;SDS011;22011;59.912;30.300;2023-04-28T07:15:00;3.28;;;1.85;;
35917;SDS011;22011;59.912;30.300;2023-04-28T07:17:27;4.78;;;2.28;;
35917;SDS011;22011;59.912;30.300;2023-04-28T07:19:56;9.43;;;3.30;;
35917;SDS011;22011;59.912;30.300;2023-04-28T07:22:24;4.63;;;2.30;;
35917;SDS011;22011;59.912;30.300;2023-04-28T07:24:51;6.85;;;2.35;;
35917;SDS011;22011;59.912;30.300;2023-04-28T07:27:19;7.70;;;2.00;;
35917;SDS011;22011;59.912;30.300;2023-04-28T07:29:46;8.95;;;2.42;;
35917;SDS011;22011;59.912;30.300;2023-04-28T07:32:15;5.75;;;2.00;;
35917;SDS011;22011;59.912;30.300;2023-04-28T07:34:42;9.38;;;1.95;;
35917;SDS011;22011;59.912;30.300;2023-04-28T07:37:11;13.43;;;2.47;;
35917;SDS011;22011;59.912;30.300;2023-04-28T07:39:39;4.22;;;1.60;;
35917;SDS011;22011;59.912;30.300;2023-04-28T07:42:06;5.32;;;1.92;;
35917;SDS011;22011;59.912;30.300;2023-04-28T07:44:34;7.53;;;1.83;;
35917;SDS011;22011;59.912;30.300;2023-04-28T07:47:02;4.15;;;1.70;;
35917;SDS011;22011;59.912;30.300;2023-04-28T07:49:29;7.15;;;2.25;;
35917;SDS011;22011;59.912;30.300;2023-04-28T07:51:57;5.95;;;1.95;;
35917;SDS011;22011;59.912;30.300;2023-04-28T07:54:26;8.00;;;2.38;;
35917;SDS011;22011;59.912;30.300;2023-04-28T07:56:54;5.57;;;1.70;;
35917;SDS011;22011;59.912;30.300;2023-04-28T07:59:22;12.27;;;1.90;;
35917;SDS011;22011;59.912;30.300;2023-04-28T08:01:50;5.55;;;1.60;;
35917;SDS011;22011;59.912;30.300;2023-04-28T08:04:17;6.07;;;2.08;;
35917;SDS011;22011;59.912;30.300;2023-04-28T08:06:45;6.60;;;1.80;;
35917;SDS011;22011;59.912;30.300;2023-04-28T08:09:12;4.20;;;1.80;;
35917;SDS011;22011;59.912;30.300;2023-04-28T08:11:41;3.58;;;1.40;;
35917;SDS011;22011;59.912;30.300;2023-04-28T08:14:09;4.25;;;1.35;;
35917;SDS011;22011;59.912;30.300;2023-04-28T08:16:36;5.03;;;1.58;;
35917;SDS011;22011;59.912;30.300;2023-04-28T08:19:06;3.00;;;1.23;;
35917;SDS011;22011;59.912;30.300;2023-04-28T08:21:33;3.53;;;1.35;;
35917;SDS011;22011;59.912;30.300;2023-04-28T08:24:01;3.85;;;1.40;;
35917;SDS011;22011;59.912;30.300;2023-04-28T08:26:28;4.45;;;1.35;;
35917;SDS011;22011;59.912;30.300;2023-04-28T08:28:57;3.17;;;1.40;;
35917;SDS011;22011;59.912;30.300;2023-04-28T08:31:25;2.20;;;1.40;;
35917;SDS011;22011;59.912;30.300;2023-04-28T08:33:52;3.35;;;1.40;;
35917;SDS011;22011;59.912;30.300;2023-04-28T08:36:20;4.13;;;1.70;;
35917;SDS011;22011;59.912;30.300;2023-04-28T08:38:48;8.77;;;1.63;;
35917;SDS011;22011;59.912;30.300;2023-04-28T08:41:16;6.53;;;1.70;;
35917;SDS011;22011;59.912;30.300;2023-04-28T08:43:44;3.28;;;1.60;;
35917;SDS011;22011;59.912;30.300;2023-04-28T08:46:13;4.10;;;1.30;;
35917;SDS011;22011;59.912;30.300;2023-04-28T08:51:11;3.17;;;1.65;;
35917;SDS011;22011;59.912;30.300;2023-04-28T08:53:43;2.42;;;1.20;;
35917;SDS011;22011;59.912;30.300;2023-04-28T08:56:15;7.20;;;1.30;;
35917;SDS011;22011;59.912;30.300;2023-04-28T08:58:44;6.72;;;1.67;;
35917;SDS011;22011;59.912;30.300;2023-04-28T09:01:13;9.60;;;1.50;;
35917;SDS011;22011;59.912;30.300;2023-04-28T09:03:41;4.45;;;1.90;;
35917;SDS011;22011;59.912;30.300;2023-04-28T09:06:08;4.50;;;1.40;;
35917;SDS011;22011;59.912;30.300;2023-04-28T09:08:36;4.45;;;1.40;;
35917;SDS011;22011;59.912;30.300;2023-04-28T09:11:04;4.07;;;1.48;;
35917;SDS011;22011;59.912;30.300;2023-04-28T09:13:33;2.65;;;1.30;;
35917;SDS011;22011;59.912;30.300;2023-04-28T09:16:02;2.63;;;1.50;;
35917;SDS011;22011;59.912;30.300;2023-04-28T09:18:31;6.95;;;1.90;;
35917;SDS011;22011;59.912;30.300;2023-04-28T09:21:02;7.82;;;1.73;;
35917;SDS011;22011;59.912;30.300;2023-04-28T09:23:31;3.22;;;1.38;;
35917;SDS011;22011;59.912;30.300;2023-04-28T09:26:00;3.70;;;1.10;;
35917;SDS011;22011;59.912;30.300;2023-04-28T09:28:29;4.05;;;1.30;;
35917;SDS011;22011;59.912;30.300;2023-04-28T09:30:57;2.78;;;1.23;;
35917;SDS011;22011;59.912;30.300;2023-04-28T09:33:24;4.82;;;1.42;;
35917;SDS011;22011;59.912;30.300;2023-04-28T09:35:53;3.03;;;1.13;;
35917;SDS011;22011;59.912;30.300;2023-04-28T09:38:21;3.10;;;1.40;;
35917;SDS011;22011;59.912;30.300;2023-04-28T09:40:50;1.98;;;0.90;;
35917;SDS011;22011;59.912;30.300;2023-04-28T09:43:22;6.15;;;1.25;;
35917;SDS011;22011;59.912;30.300;2023-04-28T09:45:51;3.00;;;1.27;;
35917;SDS011;22011;59.912;30.300;2023-04-28T09:48:25;4.07;;;1.38;;
35917;SDS011;22011;59.912;30.300;2023-04-28T09:50:56;4.38;;;1.88;;
35917;SDS011;22011;59.912;30.300;2023-04-28T09:53:24;6.05;;;1.35;;
35917;SDS011;22011;59.912;30.300;2023-04-28T09:55:52;3.90;;;1.20;;
35917;SDS011;22011;59.912;30.300;2023-04-28T09:58:22;7.67;;;1.50;;
35917;SDS011;22011;59.912;30.300;2023-04-28T10:00:51;3.63;;;1.00;;
35917;SDS011;22011;59.912;30.300;2023-04-28T10:03:23;2.42;;;1.05;;
35917;SDS011;22011;59.912;30.300;2023-04-28T10:05:51;2.67;;;1.10;;
35917;SDS011;22011;59.912;30.300;2023-04-28T10:08:21;2.38;;;0.88;;
35917;SDS011;22011;59.912;30.300;2023-04-28T10:13:19;1.58;;;0.80;;
35917;SDS011;22011;59.912;30.300;2023-04-28T10:15:47;2.78;;;0.80;;
35917;SDS011;22011;59.912;30.300;2023-04-28T10:18:15;1.55;;;0.82;;
35917;SDS011;22011;59.912;30.300;2023-04-28T10:20:44;3.42;;;0.82;;
35917;SDS011;22011;59.912;30.300;2023-04-28T10:23:28;2.95;;;0.90;;
35917;SDS011;22011;59.912;30.300;2023-04-28T10:26:08;0.95;;;0.60;;
35917;SDS011;22011;59.912;30.300;2023-04-28T10:28:43;3.28;;;1.00;;
35917;SDS011;22011;59.912;30.300;2023-04-28T10:31:12;2.75;;;1.00;;
35917;SDS011;22011;59.912;30.300;2023-04-28T10:33:41;3.95;;;0.73;;
35917;SDS011;22011;59.912;30.300;2023-04-28T10:36:09;1.13;;;0.60;;
35917;SDS011;22011;59.912;30.300;2023-04-28T10:41:37;3.60;;;0.80;;
35917;SDS011;22011;59.912;30.300;2023-04-28T10:47:06;2.60;;;1.25;;
35917;SDS011;22011;59.912;30.300;2023-04-28T10:52:46;2.53;;;0.65;;
35917;SDS011;22011;59.912;30.300;2023-04-28T10:55:29;2.88;;;1.17;;
35917;SDS011;22011;59.912;30.300;2023-04-28T11:03:54;2.33;;;1.02;;
35917;SDS011;22011;59.912;30.300;2023-04-28T11:06:28;1.73;;;0.70;;
35917;SDS011;22011;59.912;30.300;2023-04-28T11:08:57;2.67;;;0.50;;
35917;SDS011;22011;59.912;30.300;2023-04-28T11:11:28;1.65;;;0.70;;
35917;SDS011;22011;59.912;30.300;2023-04-28T11:16:59;4.70;;;0.68;;
35917;SDS011;22011;59.912;30.300;2023-04-28T11:19:28;2.83;;;1.02;;
35917;SDS011;22011;59.912;30.300;2023-04-28T11:21:57;2.70;;;0.60;;
35917;SDS011;22011;59.912;30.300;2023-04-28T11:24:25;2.13;;;0.40;;
35917;SDS011;22011;59.912;30.300;2023-04-28T11:26:55;5.78;;;0.70;;
35917;SDS011;22011;59.912;30.300;2023-04-28T11:29:29;4.68;;;0.50;;
35917;SDS011;22011;59.912;30.300;2023-04-28T11:31:58;3.03;;;0.75;;
35917;SDS011;22011;59.912;30.300;2023-04-28T11:34:26;1.55;;;0.45;;
35917;SDS011;22011;59.912;30.300;2023-04-28T11:36:53;1.88;;;0.57;;
35917;SDS011;22011;59.912;30.300;2023-04-28T11:39:25;3.08;;;0.77;;
35917;SDS011;22011;59.912;30.300;2023-04-28T11:41:56;1.70;;;0.40;;
35917;SDS011;22011;59.912;30.300;2023-04-28T11:44:24;1.80;;;0.50;;
35917;SDS011;22011;59.912;30.300;2023-04-28T11:46:53;1.17;;;0.40;;
35917;SDS011;22011;59.912;30.300;2023-04-28T11:49:22;3.93;;;0.53;;
35917;SDS011;22011;59.912;30.300;2023-04-28T11:51:50;1.55;;;0.70;;
35917;SDS011;22011;59.912;30.300;2023-04-28T11:54:21;2.58;;;0.50;;
35917;SDS011;22011;59.912;30.300;2023-04-28T11:56:51;3.10;;;0.50;;
35917;SDS011;22011;59.912;30.300;2023-04-28T11:59:23;2.60;;;0.70;;
35917;SDS011;22011;59.912;30.300;2023-04-28T12:01:52;1.77;;;0.40;;
35917;SDS011;22011;59.912;30.300;2023-04-28T12:04:28;3.63;;;0.80;;
35917;SDS011;22011;59.912;30.300;2023-04-28T12:06:57;5.82;;;1.50;;
35917;SDS011;22011;59.912;30.300;2023-04-28T12:09:26;3.78;;;0.90;;
35917;SDS011;22011;59.912;30.300;2023-04-28T12:11:55;2.53;;;0.70;;
35917;SDS011;22011;59.912;30.300;2023-04-28T12:14:24;4.03;;;0.80;;
35917;SDS011;22011;59.912;30.300;2023-04-28T12:16:52;2.38;;;0.55;;
35917;SDS011;22011;59.912;30.300;2023-04-28T12:19:19;12.57;;;0.77;;
35917;SDS011;22011;59.912;30.300;2023-04-28T12:22:02;3.28;;;0.50;;
35917;SDS011;22011;59.912;30.300;2023-04-28T12:24:30;0.80;;;0.60;;
35917;SDS011;22011;59.912;30.300;2023-04-28T12:27:15;1.98;;;0.70;;
35917;SDS011;22011;59.912;30.300;2023-04-28T12:29:47;4.50;;;1.20;;
35917;SDS011;22011;59.912;30.300;2023-04-28T12:32:15;3.33;;;1.00;;
35917;SDS011;22011;59.912;30.300;2023-04-28T12:34:45;2.47;;;0.98;;
35917;SDS011;22011;59.912;30.300;2023-04-28T12:37:12;3.80;;;1.02;;
35917;SDS011;22011;59.912;30.300;2023-04-28T12:39:40;6.97;;;0.73;;
35917;SDS011;22011;59.912;30.300;2023-04-28T12:42:08;6.47;;;1.05;;
35917;SDS011;22011;59.912;30.300;2023-04-28T12:44:37;3.03;;;0.93;;
35917;SDS011;22011;59.912;30.300;2023-04-28T12:47:07;3.80;;;0.90;;
35917;SDS011;22011;59.912;30.300;2023-04-28T12:49:35;3.38;;;1.20;;
35917;SDS011;22011;59.912;30.300;2023-04-28T12:52:04;4.00;;;1.20;;
35917;SDS011;22011;59.912;30.300;2023-04-28T12:54:32;9.00;;;1.85;;
35917;SDS011;22011;59.912;30.300;2023-04-28T12:56:59;2.67;;;1.02;;
35917;SDS011;22011;59.912;30.300;2023-04-28T12:59:27;2.95;;;0.85;;
35917;SDS011;22011;59.912;30.300;2023-04-28T13:01:56;3.65;;;1.10;;
35917;SDS011;22011;59.912;30.300;2023-04-28T13:04:25;1.67;;;0.90;;
35917;SDS011;22011;59.912;30.300;2023-04-28T13:06:52;5.68;;;1.48;;
35917;SDS011;22011;59.912;30.300;2023-04-28T13:09:20;3.33;;;1.40;;
35917;SDS011;22011;59.912;30.300;2023-04-28T13:11:47;2.88;;;0.88;;
35917;SDS011;22011;59.912;30.300;2023-04-28T13:14:15;6.45;;;1.30;;
35917;SDS011;22011;59.912;30.300;2023-04-28T13:16:42;2.83;;;1.30;;
35917;SDS011;22011;59.912;30.300;2023-04-28T13:19:10;3.90;;;1.27;;
35917;SDS011;22011;59.912;30.300;2023-04-28T13:21:40;6.45;;;1.85;;
35917;SDS011;22011;59.912;30.300;2023-04-28T13:24:08;4.85;;;1.23;;
35917;SDS011;22011;59.912;30.300;2023-04-28T13:26:36;2.85;;;1.23;;
35917;SDS011;22011;59.912;30.300;2023-04-28T13:29:04;3.65;;;1.10;;
35917;SDS011;22011;59.912;30.300;2023-04-28T13:31:33;3.75;;;1.40;;
35917;SDS011;22011;59.912;30.300;2023-04-28T13:34:00;4.40;;;1.40;;
35917;SDS011;22011;59.912;30.300;2023-04-28T13:36:30;4.05;;;1.33;;
35917;SDS011;22011;59.912;30.300;2023-04-28T13:39:00;2.42;;;1.05;;
35917;SDS011;22011;59.912;30.300;2023-04-28T13:41:27;5.70;;;1.40;;
35917;SDS011;22011;59.912;30.300;2023-04-28T13:43:55;2.13;;;0.82;;
35917;SDS011;22011;59.912;30.300;2023-04-28T13:46:23;4.00;;;1.15;;
35917;SDS011;22011;59.912;30.300;2023-04-28T13:48:50;7.93;;;1.63;;
35917;SDS011;22011;59.912;30.300;2023-04-28T13:51:18;4.68;;;1.10;;
35917;SDS011;22011;59.912;30.300;2023-04-28T13:53:45;3.90;;;1.27;;
35917;SDS011;22011;59.912;30.300;2023-04-28T13:56:14;5.10;;;1.42;;
35917;SDS011;22011;59.912;30.300;2023-04-28T13:58:42;10.35;;;1.98;;
35917;SDS011;22011;59.912;30.300;2023-04-28T14:01:09;2.75;;;1.17;;
35917;SDS011;22011;59.912;30.300;2023-04-28T14:03:37;9.25;;;1.58;;
35917;SDS011;22011;59.912;30.300;2023-04-28T14:06:05;4.38;;;1.25;;
35917;SDS011;22011;59.912;30.300;2023-04-28T14:08:32;5.30;;;1.70;;
35917;SDS011;22011;59.912;30.300;2023-04-28T14:11:00;4.03;;;1.40;;
35917;SDS011;22011;59.912;30.300;2023-04-28T14:13:29;3.08;;;1.30;;
35917;SDS011;22011;59.912;30.300;2023-04-28T14:15:56;2.60;;;1.05;;
35917;SDS011;22011;59.912;30.300;2023-04-28T14:18:24;2.47;;;1.10;;
35917;SDS011;22011;59.912;30.300;2023-04-28T14:20:51;2.15;;;0.80;;
35917;SDS011;22011;59.912;30.300;2023-04-28T14:23:19;1.80;;;1.35;;
35917;SDS011;22011;59.912;30.300;2023-04-28T14:25:47;2.53;;;1.02;;
35917;SDS011;22011;59.912;30.300;2023-04-28T14:28:15;2.08;;;0.80;;
35917;SDS011;22011;59.912;30.300;2023-04-28T14:30:43;3.25;;;1.50;;
35917;SDS011;22011;59.912;30.300;2023-04-28T14:33:11;1.95;;;1.00;;
35917;SDS011;22011;59.912;30.300;2023-04-28T14:35:39;5.07;;;1.00;;
35917;SDS011;22011;59.912;30.300;2023-04-28T14:38:06;3.63;;;0.70;;
35917;SDS011;22011;59.912;30.300;2023-04-28T14:40:34;4.03;;;1.05;;
35917;SDS011;22011;59.912;30.300;2023-04-28T14:43:01;4.53;;;1.00;;
35917;SDS011;22011;59.912;30.300;2023-04-28T14:45:29;3.05;;;1.35;;
35917;SDS011;22011;59.912;30.300;2023-04-28T14:47:58;1.90;;;1.52;;
35917;SDS011;22011;59.912;30.300;2023-04-28T14:50:25;2.80;;;1.52;;
35917;SDS011;22011;59.912;30.300;2023-04-28T14:52:53;4.75;;;2.00;;
35917;SDS011;22011;59.912;30.300;2023-04-28T14:55:20;7.20;;;1.42;;
35917;SDS011;22011;59.912;30.300;2023-04-28T14:57:48;2.13;;;1.02;;
35917;SDS011;22011;59.912;30.300;2023-04-28T15:00:16;6.10;;;1.17;;
35917;SDS011;22011;59.912;30.300;2023-04-28T15:02:44;1.83;;;0.95;;
35917;SDS011;22011;59.912;30.300;2023-04-28T15:05:13;3.70;;;1.13;;
35917;SDS011;22011;59.912;30.300;2023-04-28T15:07:40;3.88;;;0.77;;